Time;durP1;ratioP1;P1;durP2;ratioP2;P2;SDS_P1;SDS_P2;PMS_P1;PMS_P2;Temp;Humidity;BMP_temperature;BMP_pressure;BME280_temperature;BME280_humidity;BME280_pressure;Samples;Min_cycle;Max_cycle;Signal;HPM_P1;HPM_P2
2024/01/21 00:02:02;;;;;;;23.17;13.25;;;;;;;0.94;100.00;100710.22;5090848;28;20027;-71
2024/01/21 00:04:28;;;;;;;33.03;17.15;;;;;;;0.45;100.00;100710.44;5089897;28;20114;-71
2024/01/21 00:06:53;;;;;;;26.85;14.60;;;;;;;0.08;100.00;100705.91;5089825;28;20500;-72
2024/01/21 00:09:18;;;;;;;25.02;13.48;;;;;;;0.10;100.00;100703.78;5105107;28;20523;-71
2024/01/21 00:11:44;;;;;;;20.98;10.88;;;;;;;0.00;100.00;100709.03;5099861;28;20035;-71
2024/01/21 00:14:09;;;;;;;15.70;9.43;;;;;;;-0.24;100.00;100708.94;5091078;28;20024;-70
2024/01/21 00:16:35;;;;;;;10.10;6.40;;;;;;;-0.65;100.00;100697.63;5089931;28;20032;-71
2024/01/21 00:19:00;;;;;;;10.32;5.57;;;;;;;-0.81;100.00;100712.81;5089767;28;20118;-71
2024/01/21 00:21:26;;;;;;;11.38;6.60;;;;;;;-0.89;100.00;100707.59;5090962;28;20073;-70
2024/01/21 00:23:51;;;;;;;13.98;8.25;;;;;;;-0.85;100.00;100714.31;5100189;28;20023;-71
2024/01/21 00:26:17;;;;;;;12.98;6.45;;;;;;;-0.97;100.00;100710.63;5097178;28;20024;-71
2024/01/21 00:28:42;;;;;;;6.88;4.30;;;;;;;-0.80;100.00;100717.22;5090889;28;20024;-72
2024/01/21 00:31:07;;;;;;;6.55;4.78;;;;;;;-0.55;100.00;100701.69;5090919;28;20074;-71
2024/01/21 00:33:33;;;;;;;7.32;3.95;;;;;;;-0.77;100.00;100722.25;5089577;28;20475;-71
2024/01/21 00:35:58;;;;;;;10.77;6.30;;;;;;;-0.99;100.00;100717.19;5101270;28;20023;-71
2024/01/21 00:38:24;;;;;;;10.65;6.07;;;;;;;-1.12;100.00;100728.31;5098276;28;20073;-70
2024/01/21 00:40:49;;;;;;;10.52;5.82;;;;;;;-1.03;100.00;100734.34;5099531;28;20012;-71
2024/01/21 00:43:15;;;;;;;10.73;6.05;;;;;;;-1.36;100.00;100721.81;5101950;28;20504;-71
2024/01/21 00:45:41;;;;;;;11.18;6.32;;;;;;;-1.23;100.00;100729.06;5105596;28;20047;-71
2024/01/21 00:48:06;;;;;;;10.73;6.32;;;;;;;-1.21;100.00;100722.28;5100867;28;20032;-70
2024/01/21 00:50:32;;;;;;;12.35;6.45;;;;;;;-1.22;100.00;100728.00;5090845;28;20514;-71
2024/01/21 00:52:57;;;;;;;10.63;6.07;;;;;;;-1.21;100.00;100726.91;5090651;28;20527;-70
2024/01/21 00:55:23;;;;;;;9.55;5.28;;;;;;;-1.05;100.00;100740.09;5091072;28;20020;-70
2024/01/21 00:57:48;;;;;;;10.02;5.82;;;;;;;-1.14;100.00;100735.94;5090662;28;20079;-70
2024/01/21 01:00:14;;;;;;;8.45;4.90;;;;;;;-1.20;100.00;100737.69;5104724;28;20047;-70
2024/01/21 01:02:40;;;;;;;9.07;5.50;;;;;;;-1.18;100.00;100737.47;5114460;28;20376;-71
2024/01/21 01:05:06;;;;;;;10.32;5.50;;;;;;;-1.13;100.00;100734.88;5114880;28;20034;-70
2024/01/21 01:07:31;;;;;;;11.43;5.85;;;;;;;-1.04;100.00;100741.78;5109654;28;20020;-71
2024/01/21 01:09:57;;;;;;;9.88;6.53;;;;;;;-1.01;100.00;100733.06;5094090;28;20055;-70
2024/01/21 01:12:22;;;;;;;14.80;8.48;;;;;;;-1.13;100.00;100734.88;5095465;28;20020;-70
2024/01/21 01:14:48;;;;;;;18.17;10.77;;;;;;;-1.15;100.00;100742.50;5094070;28;20020;-70
2024/01/21 01:17:13;;;;;;;46.42;16.85;;;;;;;-1.30;100.00;100735.47;5110007;28;20521;-70
2024/01/21 01:19:39;;;;;;;37.40;17.27;;;;;;;-1.39;100.00;100733.22;5094139;28;20020;-70
2024/01/21 01:22:04;;;;;;;33.25;16.88;;;;;;;-1.36;100.00;100736.34;5092803;28;20020;-70
2024/01/21 01:24:30;;;;;;;33.83;18.05;;;;;;;-1.31;100.00;100732.94;5096976;28;20062;-71
2024/01/21 01:26:55;;;;;;;33.38;17.05;;;;;;;-1.32;100.00;100729.38;5102957;28;20074;-72
2024/01/21 01:29:21;;;;;;;29.67;14.75;;;;;;;-1.25;100.00;100737.53;5093957;28;20024;-72
2024/01/21 01:31:46;;;;;;;29.52;14.13;;;;;;;-1.22;100.00;100730.75;5101339;28;20039;-72
2024/01/21 01:34:12;;;;;;;28.15;15.27;;;;;;;-1.25;100.00;100736.69;5114345;28;20032;-73
2024/01/21 01:36:38;;;;;;;24.98;12.98;;;;;;;-1.31;100.00;100733.78;5097157;28;20220;-72
2024/01/21 01:39:04;;;;;;;29.15;14.73;;;;;;;-1.24;100.00;100730.13;5096694;28;20020;-73
2024/01/21 01:41:30;;;;;;;32.08;15.52;;;;;;;-1.25;100.00;100739.44;5114301;28;20024;-73
2024/01/21 01:43:55;;;;;;;29.88;14.82;;;;;;;-1.28;100.00;100725.09;5114019;28;20027;-73
2024/01/21 01:46:21;;;;;;;28.38;15.07;;;;;;;-1.13;100.00;100732.13;5105224;28;20457;-72
2024/01/21 01:48:48;;;;;;;27.40;14.68;;;;;;;-1.04;100.00;100738.16;5093585;28;20557;-73
2024/01/21 01:51:14;;;;;;;24.58;13.88;;;;;;;-1.17;100.00;100739.16;5093688;28;20027;-72
2024/01/21 01:53:39;;;;;;;29.05;15.40;;;;;;;-1.21;100.00;100737.91;5093545;28;20106;-72
2024/01/21 01:56:05;;;;;;;36.80;17.95;;;;;;;-1.17;100.00;100748.22;5097273;28;20050;-72
2024/01/21 01:58:34;;;;;;;28.75;15.73;;;;;;;-1.16;100.00;100738.91;5112434;28;20031;-73
2024/01/21 02:00:59;;;;;;;34.30;17.55;;;;;;;-1.13;100.00;100741.22;5103956;28;20028;-73
2024/01/21 02:03:25;;;;;;;30.58;16.17;;;;;;;-1.25;100.00;100745.78;5092062;28;20031;-73
2024/01/21 02:05:51;;;;;;;32.40;17.23;;;;;;;-1.27;100.00;100745.13;5101877;28;20027;-73
2024/01/21 02:08:17;;;;;;;30.92;15.57;;;;;;;-1.23;100.00;100745.53;5112031;28;20031;-73
2024/01/21 02:10:42;;;;;;;37.80;16.98;;;;;;;-1.11;100.00;100743.72;5112835;28;20068;-73
2024/01/21 02:13:08;;;;;;;40.80;21.92;;;;;;;-1.25;100.00;100747.66;5099601;28;20063;-72
2024/01/21 02:15:33;;;;;;;49.42;24.80;;;;;;;-1.34;100.00;100744.38;5098626;28;20031;-72
2024/01/21 02:17:59;;;;;;;57.53;28.95;;;;;;;-1.30;100.00;100749.19;5112264;28;20031;-72
2024/01/21 02:20:24;;;;;;;53.05;28.00;;;;;;;-1.35;100.00;100754.50;5113358;28;20035;-72
2024/01/21 02:22:50;;;;;;;50.40;26.88;;;;;;;-1.12;100.00;100753.03;5113367;28;20483;-73
2024/01/21 02:25:16;;;;;;;45.17;24.95;;;;;;;-1.20;100.00;100745.09;5112309;28;20028;-73
2024/01/21 02:27:41;;;;;;;43.15;23.75;;;;;;;-1.25;100.00;100747.66;5108762;28;20472;-73
2024/01/21 02:30:07;;;;;;;34.80;19.75;;;;;;;-1.18;100.00;100743.78;5092563;28;20107;-73
2024/01/21 02:32:32;;;;;;;34.67;19.25;;;;;;;-1.11;100.00;100742.91;5092860;28;20020;-73
2024/01/21 02:34:58;;;;;;;35.00;16.13;;;;;;;-1.15;100.00;100745.25;5093496;28;20028;-73
2024/01/21 02:37:23;;;;;;;32.60;15.70;;;;;;;-1.21;100.00;100748.88;5107210;28;20459;-69
2024/01/21 02:39:49;;;;;;;33.83;15.90;;;;;;;-1.22;100.00;100736.22;5092561;28;20111;-69
2024/01/21 02:42:15;;;;;;;32.15;16.42;;;;;;;-1.08;100.00;100745.19;5092555;28;20493;-69
2024/01/21 02:44:40;;;;;;;37.22;16.90;;;;;;;-1.09;100.00;100741.59;5091247;28;20506;-69
2024/01/21 02:47:05;;;;;;;41.42;20.20;;;;;;;-1.07;100.00;100744.97;5092365;28;20046;-70
2024/01/21 02:49:31;;;;;;;36.03;19.00;;;;;;;-1.04;100.00;100741.78;5092323;28;20031;-70
2024/01/21 02:51:57;;;;;;;42.15;20.00;;;;;;;-1.14;100.00;100755.19;5091260;28;20454;-69
2024/01/21 02:54:23;;;;;;;39.65;18.33;;;;;;;-1.05;100.00;100748.34;5092258;28;20543;-69
2024/01/21 02:56:49;;;;;;;38.42;17.83;;;;;;;-1.10;100.00;100752.81;5091154;28;20063;-69
2024/01/21 02:59:15;;;;;;;35.40;17.52;;;;;;;-1.15;100.00;100753.50;5091045;28;20116;-70
2024/01/21 03:01:40;;;;;;;37.40;17.50;;;;;;;-1.17;100.00;100756.47;5090693;28;20039;-70
2024/01/21 03:04:06;;;;;;;41.95;18.65;;;;;;;-1.23;100.00;100756.53;5108674;28;20019;-69
2024/01/21 03:06:31;;;;;;;36.80;18.27;;;;;;;-1.45;100.00;100749.53;5097003;28;20028;-70
2024/01/21 03:08:56;;;;;;;39.28;18.33;;;;;;;-1.44;100.00;100756.69;5108712;28;20027;-70
2024/01/21 03:11:22;;;;;;;36.03;16.80;;;;;;;-1.42;100.00;100756.47;5112358;28;20023;-70
2024/01/21 03:13:48;;;;;;;40.60;18.98;;;;;;;-1.46;100.00;100752.47;5112110;28;20452;-70
2024/01/21 03:16:14;;;;;;;38.13;18.88;;;;;;;-1.35;100.00;100759.16;5112276;28;20027;-70
2024/01/21 03:18:39;;;;;;;35.50;17.73;;;;;;;-1.43;100.00;100752.06;5106649;28;20035;-70
2024/01/21 03:21:09;;;;;;;39.05;20.67;;;;;;;-1.53;100.00;100751.72;5090945;28;20020;-69
2024/01/21 03:23:34;;;;;;;45.65;23.05;;;;;;;-1.43;100.00;100763.03;5091950;28;20500;-70
2024/01/21 03:26:00;;;;;;;39.60;21.02;;;;;;;-1.54;100.00;100758.25;5095725;28;20036;-70
2024/01/21 03:28:26;;;;;;;49.95;21.65;;;;;;;-1.43;100.00;100769.34;5091789;28;20108;-70
2024/01/21 03:30:52;;;;;;;43.33;20.00;;;;;;;-1.24;100.00;100765.81;5090403;28;20012;-70
2024/01/21 03:33:17;;;;;;;45.35;21.23;;;;;;;-1.04;100.00;100772.00;5091773;28;20024;-70
2024/01/21 03:35:43;;;;;;;46.30;20.58;;;;;;;-0.92;100.00;100768.50;5091454;28;20462;-70
2024/01/21 03:38:08;;;;;;;44.08;20.77;;;;;;;-0.71;100.00;100770.81;5104380;28;20084;-70
2024/01/21 03:40:33;;;;;;;38.13;18.90;;;;;;;-0.62;100.00;100778.75;5091424;28;20097;-70
2024/01/21 03:42:59;;;;;;;34.42;16.48;;;;;;;-0.55;100.00;100773.16;5091529;28;20023;-70
2024/01/21 03:45:24;;;;;;;33.60;16.63;;;;;;;-0.32;100.00;100778.00;5090225;28;20028;-75
2024/01/21 03:47:50;;;;;;;33.42;16.08;;;;;;;-0.31;100.00;100769.50;5091466;28;20052;-73
2024/01/21 03:50:18;;;;;;;39.65;16.25;;;;;;;-0.17;100.00;100772.09;5090057;28;20389;-73
2024/01/21 03:52:44;;;;;;;37.58;19.13;;;;;;;-0.07;100.00;100775.13;5096937;28;20023;-73
2024/01/21 03:55:10;;;;;;;38.80;19.50;;;;;;;0.02;100.00;100778.41;5111638;28;20107;-73
2024/01/21 03:57:36;;;;;;;37.05;17.40;;;;;;;0.13;100.00;100779.53;5111721;28;20061;-73
2024/01/21 04:00:02;;;;;;;36.00;17.35;;;;;;;0.21;100.00;100776.44;5110483;28;20026;-73
2024/01/21 04:02:29;;;;;;;43.58;19.30;;;;;;;0.26;100.00;100775.75;5091085;28;20567;-73
2024/01/21 04:04:55;;;;;;;37.38;18.05;;;;;;;0.28;100.00;100779.09;5091238;28;20032;-73
2024/01/21 04:07:21;;;;;;;33.42;17.85;;;;;;;0.29;100.00;100778.03;5091141;28;20412;-73
2024/01/21 04:09:46;;;;;;;33.67;16.35;;;;;;;0.36;100.00;100767.78;5090749;28;20044;-73
2024/01/21 04:12:13;;;;;;;31.17;15.55;;;;;;;0.41;100.00;100767.88;5108820;28;20015;-73
2024/01/21 04:14:38;;;;;;;26.88;13.45;;;;;;;0.45;100.00;100776.53;5111523;28;20084;-73
2024/01/21 04:17:04;;;;;;;30.42;14.55;;;;;;;0.35;100.00;100765.25;5111334;28;20472;-73
2024/01/21 04:19:29;;;;;;;31.70;15.48;;;;;;;0.48;100.00;100776.03;5111482;28;20051;-73
2024/01/21 04:21:55;;;;;;;39.80;16.52;;;;;;;0.44;100.00;100771.25;5111234;28;20031;-73
2024/01/21 04:24:20;;;;;;;42.00;19.33;;;;;;;0.48;100.00;100773.28;5106656;28;20527;-73
2024/01/21 04:26:46;;;;;;;49.03;21.95;;;;;;;0.51;100.00;100781.06;5102768;28;20088;-73
2024/01/21 04:29:11;;;;;;;53.15;22.92;;;;;;;0.44;100.00;100785.88;5111308;28;20023;-73
2024/01/21 04:31:37;;;;;;;51.20;21.77;;;;;;;0.36;100.00;100780.69;5111156;28;20034;-73
2024/01/21 04:34:02;;;;;;;43.80;20.58;;;;;;;0.36;100.00;100777.94;5114629;28;20023;-73
2024/01/21 04:36:28;;;;;;;39.85;18.25;;;;;;;0.42;100.00;100776.97;5098496;28;20032;-73
2024/01/21 04:38:53;;;;;;;28.17;14.73;;;;;;;0.48;100.00;100780.69;5096594;28;20416;-73
2024/01/21 04:41:19;;;;;;;28.40;14.73;;;;;;;0.51;100.00;100788.50;5094747;28;20027;-73
2024/01/21 04:43:44;;;;;;;40.58;18.80;;;;;;;0.50;100.00;100784.09;5093146;28;20072;-73
2024/01/21 04:46:10;;;;;;;49.35;23.27;;;;;;;0.46;100.00;100778.19;5101529;28;20020;-73
2024/01/21 04:48:36;;;;;;;61.35;28.52;;;;;;;0.47;100.00;100784.53;5114970;28;20704;-73
2024/01/21 04:51:02;;;;;;;60.78;26.90;;;;;;;0.43;100.00;100783.34;5115130;28;20016;-73
2024/01/21 04:53:28;;;;;;;44.75;21.15;;;;;;;0.52;100.00;100792.94;5113803;28;20096;-73
2024/01/21 04:55:54;;;;;;;32.05;16.17;;;;;;;0.45;100.00;100793.03;5114988;28;20031;-73
2024/01/21 04:58:19;;;;;;;32.33;16.70;;;;;;;0.50;100.00;100789.59;5113653;28;20400;-73
2024/01/21 05:00:45;;;;;;;26.42;15.43;;;;;;;0.42;100.00;100801.75;5104623;28;20205;-73
2024/01/21 05:03:10;;;;;;;22.67;11.38;;;;;;;0.45;100.00;100804.06;5098656;28;20516;-73
2024/01/21 05:05:36;;;;;;;21.55;11.20;;;;;;;0.37;100.00;100801.63;5114381;28;20385;-73
2024/01/21 05:23:57;;;;;;;30.75;18.30;;;;;;;0.85;100.00;100808.09;5150576;27;20880;-68
2024/01/21 05:26:23;;;;;;;31.88;18.88;;;;;;;0.86;100.00;100811.69;5131036;27;20043;-69
2024/01/21 05:28:48;;;;;;;25.65;16.02;;;;;;;0.66;100.00;100816.44;5129744;27;20497;-71
2024/01/21 05:31:14;;;;;;;16.15;9.75;;;;;;;0.59;100.00;100815.69;5128102;28;20023;-71
2024/01/21 05:33:40;;;;;;;20.58;11.82;;;;;;;0.50;100.00;100819.88;5147181;27;20030;-70
2024/01/21 05:36:06;;;;;;;45.58;18.58;;;;;;;0.32;100.00;100821.59;5149970;27;20466;-72
2024/01/21 05:38:32;;;;;;;27.63;13.32;;;;;;;0.26;100.00;100811.53;5148437;27;20027;-71
2024/01/21 05:40:57;;;;;;;21.77;12.23;;;;;;;0.29;100.00;100830.31;5148986;27;20023;-72
2024/01/21 05:43:23;;;;;;;27.42;13.18;;;;;;;0.09;100.00;100836.94;5150253;27;20034;-71
2024/01/21 05:45:48;;;;;;;23.67;14.10;;;;;;;0.03;100.00;100834.25;5147468;27;20103;-72
2024/01/21 05:48:14;;;;;;;30.73;13.30;;;;;;;0.01;100.00;100831.75;5144894;27;20099;-72
2024/01/21 05:50:39;;;;;;;30.70;16.60;;;;;;;0.10;100.00;100835.84;5127976;28;20030;-72
2024/01/21 05:53:06;;;;;;;30.88;15.98;;;;;;;0.15;100.00;100834.34;5129158;28;20057;-72
2024/01/21 05:55:32;;;;;;;38.25;19.00;;;;;;;0.20;100.00;100848.22;5137482;27;20031;-71
2024/01/21 05:57:58;;;;;;;55.30;29.30;;;;;;;0.18;100.00;100845.72;5148243;27;20023;-72
2024/01/21 06:00:24;;;;;;;65.00;34.42;;;;;;;0.16;100.00;100844.28;5149786;27;20030;-71
2024/01/21 06:02:51;;;;;;;72.90;36.97;;;;;;;0.15;100.00;100853.59;5144363;27;20015;-70
2024/01/21 06:05:16;;;;;;;85.88;41.58;;;;;;;0.16;100.00;100841.53;5138818;27;20026;-71
2024/01/21 06:07:42;;;;;;;73.97;40.45;;;;;;;0.17;100.00;100863.28;5143104;27;20015;-71
2024/01/21 06:10:08;;;;;;;72.68;38.30;;;;;;;0.13;100.00;100860.19;5127538;28;20022;-70
2024/01/21 06:12:34;;;;;;;56.78;32.08;;;;;;;0.23;100.00;100867.88;5127673;28;20018;-71
2024/01/21 06:14:59;;;;;;;54.72;31.85;;;;;;;0.19;100.00;100855.66;5125200;28;20168;-73
2024/01/21 06:17:25;;;;;;;70.93;34.83;;;;;;;0.17;100.00;100859.72;5109087;27;20028;-72
2024/01/21 06:19:50;;;;;;;79.65;39.55;;;;;;;0.07;100.00;100868.53;5109380;28;20066;-72
2024/01/21 06:22:16;;;;;;;57.95;30.88;;;;;;;0.18;100.00;100869.63;5106576;28;20504;-72
2024/01/21 06:24:41;;;;;;;34.72;20.80;;;;;;;0.29;100.00;100866.09;5112842;28;20476;-70
2024/01/21 06:27:10;;;;;;;31.73;18.70;;;;;;;0.19;100.00;100855.66;5113817;28;20088;-73
2024/01/21 06:29:36;;;;;;;32.25;16.60;;;;;;;0.29;100.00;100874.38;5114181;28;20024;-73
2024/01/21 06:32:01;;;;;;;30.33;18.05;;;;;;;0.11;100.00;100850.47;5113479;28;20411;-72
2024/01/21 06:34:27;;;;;;;30.50;17.17;;;;;;;0.21;100.00;100852.66;5113367;28;20130;-73
2024/01/21 06:36:52;;;;;;;33.08;18.65;;;;;;;0.35;100.00;100878.09;5114314;28;20111;-73
2024/01/21 06:39:18;;;;;;;42.58;20.40;;;;;;;0.16;100.00;100860.78;5114958;28;20561;-74
2024/01/21 06:41:43;;;;;;;43.50;22.00;;;;;;;0.20;100.00;100873.00;5113735;28;20115;-74
2024/01/21 06:44:09;;;;;;;45.13;22.15;;;;;;;0.23;100.00;100876.13;5114310;28;20092;-73
2024/01/21 06:46:34;;;;;;;46.15;24.63;;;;;;;0.18;100.00;100884.25;5097046;28;20101;-72
2024/01/21 06:49:00;;;;;;;54.03;26.27;;;;;;;0.10;100.00;100877.13;5092846;28;20046;-73
2024/01/21 06:51:32;;;;;;;65.70;31.52;;;;;;;0.20;100.00;100892.25;5100479;28;20027;-73
2024/01/21 06:54:02;;;;;;;67.53;36.65;;;;;;;0.31;100.00;100896.16;5097691;28;20028;-75
2024/01/21 06:56:27;;;;;;;63.67;37.58;;;;;;;0.34;100.00;100904.78;5076178;28;20032;-74
2024/01/21 06:58:53;;;;;;;40.55;24.60;;;;;;;0.31;100.00;100907.19;5108982;28;20089;-74
2024/01/21 07:01:20;;;;;;;44.10;25.90;;;;;;;0.20;100.00;100922.53;5114549;28;20027;-72
2024/01/21 07:03:45;;;;;;;50.05;27.75;;;;;;;-0.08;100.00;100922.00;5113287;28;20042;-69
2024/01/21 07:06:11;;;;;;;52.15;28.90;;;;;;;-0.29;100.00;100931.53;5112658;27;20051;-75
2024/01/21 07:08:42;;;;;;;54.78;32.97;;;;;;;-0.69;100.00;100915.41;5113723;28;20039;-75
2024/01/21 07:11:08;;;;;;;66.32;37.13;;;;;;;-0.71;100.00;100926.59;5106798;28;20390;-79
2024/01/21 07:13:36;;;;;;;45.13;26.17;;;;;;;-0.93;100.00;100929.72;5113009;28;20026;-78
2024/01/21 07:16:06;;;;;;;51.28;27.33;;;;;;;-1.03;100.00;100915.63;5107409;28;20522;-78
2024/01/21 07:18:32;;;;;;;49.03;23.92;;;;;;;-0.96;100.00;100904.63;5100810;28;20054;-80
2024/01/21 07:20:57;;;;;;;40.60;20.67;;;;;;;-0.68;100.00;100928.06;5099557;28;20019;-72
2024/01/21 07:23:23;;;;;;;42.92;21.10;;;;;;;-0.73;100.00;100935.06;5104541;28;20036;-72
2024/01/21 07:25:48;;;;;;;43.63;21.25;;;;;;;-0.66;100.00;100932.28;5105325;28;20628;-72
2024/01/21 07:28:15;;;;;;;68.13;34.97;;;;;;;-0.57;100.00;100930.09;5096593;28;20081;-72
2024/01/21 07:30:41;;;;;;;75.70;43.17;;;;;;;-0.63;100.00;100930.97;5111036;28;20085;-70
2024/01/21 07:33:10;;;;;;;116.13;65.13;;;;;;;-0.49;100.00;100935.28;5110497;28;20017;-70
2024/01/21 07:35:36;;;;;;;121.43;73.88;;;;;;;-0.39;100.00;100936.69;5089047;28;20032;-69
2024/01/21 07:38:02;;;;;;;59.67;34.28;;;;;;;-0.18;100.00;100927.16;5110340;28;20061;-70
2024/01/21 07:40:27;;;;;;;55.35;36.75;;;;;;;-0.05;100.00;100938.06;5108402;28;20499;-69
2024/01/21 07:42:53;;;;;;;38.88;22.38;;;;;;;0.20;100.00;100945.41;5097882;28;20479;-71
2024/01/21 07:45:18;;;;;;;35.83;23.02;;;;;;;0.58;100.00;100948.13;5108641;28;20038;-67
2024/01/21 07:47:44;;;;;;;23.83;15.13;;;;;;;0.65;100.00;100935.94;5105806;28;20062;-68
2024/01/21 07:50:10;;;;;;;48.67;29.73;;;;;;;1.00;100.00;100964.69;5105982;28;20103;-70
2024/01/21 07:52:37;;;;;;;33.70;20.38;;;;;;;0.75;100.00;100973.13;5096289;28;20577;-69
2024/01/21 07:55:04;;;;;;;53.75;30.63;;;;;;;0.53;100.00;100970.84;5108568;28;20039;-69
2024/01/21 07:57:29;;;;;;;57.97;30.77;;;;;;;0.19;100.00;100967.63;5094475;28;20039;-69
2024/01/21 07:59:54;;;;;;;67.38;37.53;;;;;;;0.37;100.00;100967.66;5108340;28;20147;-69
2024/01/21 08:02:20;;;;;;;29.92;20.52;;;;;;;-0.44;100.00;100971.22;5096693;28;20024;-71
2024/01/21 08:04:46;;;;;;;32.40;22.08;;;;;;;-0.02;100.00;100973.38;5108827;28;20035;-68
2024/01/21 08:07:12;;;;;;;32.35;21.58;;;;;;;0.63;100.00;100982.16;5110517;28;20102;-69
2024/01/21 08:09:37;;;;;;;44.35;26.90;;;;;;;0.98;100.00;100977.88;5100257;28;20145;-69
2024/01/21 08:12:03;;;;;;;65.75;33.30;;;;;;;0.34;100.00;100979.09;5094540;28;20032;-68
2024/01/21 08:14:30;;;;;;;72.53;35.92;;;;;;;0.47;100.00;100988.28;5102456;28;20036;-68
2024/01/21 08:16:55;;;;;;;47.58;27.55;;;;;;;0.61;100.00;100988.97;5091393;28;20031;-69
2024/01/21 08:19:21;;;;;;;31.02;20.13;;;;;;;0.57;100.00;100985.81;5105054;28;20499;-66
2024/01/21 08:21:47;;;;;;;31.27;20.25;;;;;;;0.64;100.00;100983.84;5092523;28;20028;-69
2024/01/21 08:24:14;;;;;;;27.63;18.48;;;;;;;0.58;100.00;100987.50;5105211;28;20487;-69
2024/01/21 08:26:39;;;;;;;27.95;15.85;;;;;;;0.79;100.00;100988.94;5097110;28;20039;-71
2024/01/21 08:29:04;;;;;;;30.83;18.25;;;;;;;0.28;100.00;100996.56;5103468;28;20030;-71
2024/01/21 08:31:30;;;;;;;27.35;19.50;;;;;;;0.52;100.00;100994.78;5092413;28;20020;-71
2024/01/21 08:33:56;;;;;;;26.55;18.58;;;;;;;0.37;100.00;100997.09;5106198;28;20534;-68
2024/01/21 08:36:21;;;;;;;30.77;19.45;;;;;;;0.32;100.00;101002.44;5102486;28;20453;-65
2024/01/21 08:38:46;;;;;;;23.75;16.17;;;;;;;0.16;100.00;101001.97;5093555;28;20020;-71
2024/01/21 08:41:12;;;;;;;21.73;15.60;;;;;;;0.72;100.00;101001.97;5098292;28;20034;-71
2024/01/21 08:43:37;;;;;;;18.17;12.77;;;;;;;0.78;100.00;101000.19;5094891;28;20089;-70
2024/01/21 08:46:03;;;;;;;20.77;13.20;;;;;;;0.93;100.00;101006.13;5102794;28;20054;-67
2024/01/21 08:48:29;;;;;;;21.25;14.00;;;;;;;0.92;100.00;101007.19;5096911;28;20032;-71
2024/01/21 08:50:55;;;;;;;19.10;12.05;;;;;;;1.27;100.00;101011.19;5098258;28;20032;-71
2024/01/21 08:53:20;;;;;;;20.80;12.50;;;;;;;1.40;100.00;101012.88;5092133;28;20106;-71
2024/01/21 08:55:46;;;;;;;18.73;11.82;;;;;;;1.42;99.10;101007.97;5106874;28;20587;-71
2024/01/21 08:58:12;;;;;;;21.58;14.27;;;;;;;1.27;100.00;101008.44;5109435;28;20083;-72
2024/01/21 09:00:37;;;;;;;19.98;13.43;;;;;;;1.70;100.00;101011.16;5102970;28;20043;-78
2024/01/21 09:03:04;;;;;;;22.92;14.18;;;;;;;1.77;100.00;100998.91;5104268;28;20102;-72
2024/01/21 09:05:29;;;;;;;24.17;15.30;;;;;;;1.96;100.00;101010.69;5095807;28;20544;-72
2024/01/21 09:07:55;;;;;;;23.95;15.65;;;;;;;2.01;100.00;101006.38;5094898;28;20027;-73
2024/01/21 09:10:21;;;;;;;20.73;13.52;;;;;;;2.04;100.00;100998.44;5109708;28;20130;-71
2024/01/21 09:12:46;;;;;;;23.38;12.50;;;;;;;2.17;100.00;100999.28;5102958;28;20026;-74
2024/01/21 09:15:12;;;;;;;23.83;13.82;;;;;;;2.31;100.00;100995.19;5098851;28;20024;-76
2024/01/21 09:17:38;;;;;;;22.52;14.23;;;;;;;2.26;99.42;101000.59;5107110;28;20403;-73
2024/01/21 09:20:04;;;;;;;21.25;13.52;;;;;;;2.06;99.42;100998.22;5094639;28;20106;-80
2024/01/21 09:22:29;;;;;;;38.55;25.73;;;;;;;2.32;98.53;101002.41;5104124;28;20509;-76
2024/01/21 09:24:55;;;;;;;22.95;14.02;;;;;;;2.53;97.09;101000.91;5107910;28;20063;-76
2024/01/21 09:27:20;;;;;;;18.05;12.10;;;;;;;2.59;96.32;101007.38;5102725;28;20055;-75
2024/01/21 09:29:45;;;;;;;18.70;13.30;;;;;;;2.34;94.80;101000.22;5098685;28;20156;-74
2024/01/21 09:32:11;;;;;;;19.10;13.88;;;;;;;2.09;94.18;101004.09;5109275;28;20510;-76
2024/01/21 09:34:40;;;;;;;20.52;12.32;;;;;;;1.83;96.54;100999.88;5106045;28;20110;-75
2024/01/21 09:37:06;;;;;;;20.67;12.17;;;;;;;1.75;96.83;100994.69;5108891;28;20479;-75
2024/01/21 09:39:32;;;;;;;19.83;13.20;;;;;;;1.93;94.93;100989.09;5109420;28;20476;-74
2024/01/21 09:41:58;;;;;;;20.70;14.40;;;;;;;2.07;94.88;100989.69;5097597;28;20020;-74
2024/01/21 09:44:29;;;;;;;23.60;15.80;;;;;;;1.72;95.39;100981.41;5108611;28;20019;-75
2024/01/21 09:46:59;;;;;;;33.42;21.15;;;;;;;1.26;97.71;100995.69;5109881;28;20027;-77
2024/01/21 09:49:25;;;;;;;32.85;19.38;;;;;;;1.16;99.18;100996.28;5111159;28;20058;-74
2024/01/21 09:51:52;;;;;;;25.05;16.35;;;;;;;1.56;98.31;101005.00;5107874;28;20016;-75
2024/01/21 09:54:22;;;;;;;24.70;16.33;;;;;;;1.64;97.90;101004.66;5075823;28;20399;-74
2024/01/21 09:56:48;;;;;;;34.75;20.23;;;;;;;1.60;97.16;100993.25;5114837;28;20019;-74
2024/01/21 09:59:15;;;;;;;37.00;21.52;;;;;;;1.45;98.34;100996.50;5097058;28;20077;-75
2024/01/21 10:01:41;;;;;;;45.38;25.27;;;;;;;1.74;98.50;100993.88;5102345;28;20028;-73
2024/01/21 10:04:08;;;;;;;44.00;24.00;;;;;;;1.05;98.12;100989.66;5103881;28;20127;-78
2024/01/21 10:06:34;;;;;;;46.28;25.25;;;;;;;0.76;99.78;100985.81;5098272;28;20404;-74
2024/01/21 10:09:16;;;;;;;48.65;27.17;;;;;;;1.30;98.61;100990.56;5096737;27;20035;-70
2024/01/21 10:11:43;;;;;;;47.47;27.48;;;;;;;1.69;97.75;100988.25;5094723;28;20122;-70
2024/01/21 10:14:09;;;;;;;47.30;28.70;;;;;;;0.99;100.00;100982.31;5096328;28;20035;-69
2024/01/21 10:16:40;;;;;;;71.93;38.22;;;;;;;0.84;100.00;100989.09;5103596;28;20030;-69
2024/01/21 10:19:07;;;;;;;75.97;38.20;;;;;;;0.76;100.00;100986.63;5104247;28;20035;-69
2024/01/21 10:21:32;;;;;;;60.28;34.55;;;;;;;0.77;100.00;100981.97;5104307;28;20096;-69
2024/01/21 10:24:01;;;;;;;56.63;34.35;;;;;;;0.72;100.00;100982.69;5101520;28;20028;-69
2024/01/21 10:26:26;;;;;;;46.33;28.70;;;;;;;0.68;100.00;100978.72;5103454;28;20471;-71
2024/01/21 10:28:52;;;;;;;42.08;27.90;;;;;;;0.51;100.00;100979.31;5106353;28;20065;-69
2024/01/21 10:31:17;;;;;;;44.97;27.08;;;;;;;0.08;100.00;100991.28;5109927;28;20106;-70
2024/01/21 10:33:44;;;;;;;45.60;28.63;;;;;;;0.58;100.00;100989.44;5107881;28;20034;-69
2024/01/21 10:36:11;;;;;;;48.05;27.85;;;;;;;0.84;100.00;100977.22;5097287;28;20480;-69
2024/01/21 10:38:48;;;;;;;50.03;30.83;;;;;;;1.09;100.00;100982.59;5114171;28;20019;-69
2024/01/21 10:41:33;;;;;;;53.65;30.10;;;;;;;0.79;100.00;100975.19;5108450;28;20130;-69
2024/01/21 10:44:00;;;;;;;50.97;29.55;;;;;;;1.14;100.00;100967.25;5094923;28;20069;-68
2024/01/21 10:46:26;;;;;;;60.03;33.70;;;;;;;1.49;100.00;100972.88;5107077;28;20054;-69
2024/01/21 10:48:57;;;;;;;67.40;37.45;;;;;;;1.69;100.00;100968.94;5104418;28;20031;-70
2024/01/21 10:51:23;;;;;;;73.75;40.47;;;;;;;1.95;100.00;100970.38;5106887;28;20144;-69
2024/01/21 10:53:52;;;;;;;76.00;37.08;;;;;;;2.10;99.32;100967.13;5108331;28;20032;-70
2024/01/21 10:56:23;;;;;;;69.93;36.85;;;;;;;2.18;99.13;100971.44;5095384;28;20028;-69
2024/01/21 10:58:49;;;;;;;54.28;29.48;;;;;;;2.42;98.74;100967.81;5090350;28;20036;-68
2024/01/21 11:01:16;;;;;;;54.50;29.88;;;;;;;2.14;97.90;100963.88;5100823;28;20038;-69
2024/01/21 11:03:43;;;;;;;46.45;27.92;;;;;;;2.19;96.40;100959.31;5102075;28;20020;-69
2024/01/21 11:06:13;;;;;;;43.70;24.70;;;;;;;1.95;98.05;100964.84;5095607;28;20103;-69
2024/01/21 11:08:43;;;;;;;36.75;22.83;;;;;;;2.38;96.93;100957.22;5101652;28;20080;-69
2024/01/21 11:11:08;;;;;;;;;;;;;;;2.08;97.36;100952.72;5096900;28;20035;-66
2024/01/21 11:13:50;;;;;;;48.38;28.60;;;;;;;2.19;96.01;100953.78;5107071;28;19925;-69
2024/01/21 11:16:30;;;;;;;53.25;30.15;;;;;;;2.62;95.92;100954.41;5090835;28;20036;-67
2024/01/21 11:19:02;;;;;;;36.05;23.88;;;;;;;3.04;95.13;100947.72;5100758;28;20515;-70
2024/01/21 11:21:29;;;;;;;36.40;19.52;;;;;;;3.39;94.73;100942.25;5106611;28;20030;-67